createdAt,value
2023-03-10T00:02:01.181Z,14.70
2023-03-10T00:04:43.938Z,14.60
2023-03-10T00:07:14.387Z,14.60
2023-03-10T00:09:59.409Z,14.60
2023-03-10T00:12:45.863Z,14.60
2023-03-10T00:15:20.892Z,14.50
2023-03-10T00:17:56.104Z,14.50
2023-03-10T00:20:49.144Z,14.50
2023-03-10T00:23:21.946Z,14.40
2023-03-10T00:26:08.588Z,14.40
2023-03-10T00:28:55.730Z,14.40
2023-03-10T00:31:51.434Z,14.40
2023-03-10T00:34:25.497Z,14.40
2023-03-10T00:37:31.433Z,14.40
2023-03-10T00:40:18.359Z,14.40
2023-03-10T00:43:14.118Z,14.30
2023-03-10T00:46:21.603Z,14.30
2023-03-10T00:48:53.055Z,14.30
2023-03-10T00:51:45.075Z,14.30
2023-03-10T00:54:56.932Z,14.30
2023-03-10T00:57:28.842Z,14.30
2023-03-10T01:00:20.260Z,14.30
2023-03-10T01:02:57.496Z,14.30
2023-03-10T01:05:47.248Z,14.30
2023-03-10T01:08:19.714Z,14.20
2023-03-10T01:11:17.398Z,14.20
2023-03-10T01:14:03.117Z,14.20
2023-03-10T01:16:49.872Z,14.20
2023-03-10T01:19:40.479Z,14.20
2023-03-10T01:22:21.167Z,14.20
2023-03-10T01:25:06.057Z,14.20
2023-03-10T01:27:56.939Z,14.20
2023-03-10T01:30:45.224Z,14.20
2023-03-10T01:33:28.566Z,14.10
2023-03-10T01:36:08.791Z,14.10
2023-03-10T01:38:41.778Z,14.10
2023-03-10T01:41:16.626Z,14.10
2023-03-10T01:44:05.178Z,14.10
2023-03-10T01:46:54.453Z,14.10
2023-03-10T01:49:59.136Z,14.10
2023-03-10T01:53:03.478Z,14.10
2023-03-10T01:55:59.606Z,14.10
2023-03-10T01:58:49.462Z,14.00
2023-03-10T02:02:03.374Z,13.90
2023-03-10T02:04:48.181Z,13.90
2023-03-10T02:07:34.474Z,13.80
2023-03-10T02:10:06.347Z,13.70
2023-03-10T02:12:43.866Z,13.70
2023-03-10T02:15:25.215Z,13.70
2023-03-10T02:18:11.885Z,13.60
2023-03-10T02:20:59.514Z,13.60
2023-03-10T02:24:01.374Z,13.50
2023-03-10T02:27:00.485Z,13.50
2023-03-10T02:29:58.538Z,13.50
2023-03-10T02:32:52.142Z,13.40
2023-03-10T02:35:38.761Z,13.40
2023-03-10T02:38:15.068Z,13.40
2023-03-10T02:40:51.383Z,13.30
2023-03-10T02:43:39.435Z,13.30
2023-03-10T02:46:22.621Z,13.30
2023-03-10T02:49:17.421Z,13.30
2023-03-10T02:51:51.919Z,13.30
2023-03-10T02:54:31.246Z,13.20
2023-03-10T02:57:03.541Z,13.20
2023-03-10T02:59:56.778Z,13.20
2023-03-10T03:03:02.829Z,13.20
2023-03-10T03:05:52.714Z,13.20
2023-03-10T03:08:46.406Z,13.20
2023-03-10T03:11:30.247Z,13.20
2023-03-10T03:14:12.729Z,13.20
2023-03-10T03:16:43.834Z,13.10
2023-03-10T03:19:45.040Z,13.10
2023-03-10T03:22:35.051Z,13.10
2023-03-10T03:25:15.526Z,13.10
2023-03-10T03:27:53.010Z,13.10
2023-03-10T03:30:35.309Z,13.10
2023-03-10T03:33:16.268Z,13.10
2023-03-10T03:36:23.690Z,13.10
2023-03-10T03:39:05.128Z,13.10
2023-03-10T03:41:53.528Z,13.10
2023-03-10T03:44:39.586Z,13.10
2023-03-10T03:47:18.949Z,13.10
2023-03-10T03:49:52.947Z,13.10
2023-03-10T03:52:28.844Z,13.10
2023-03-10T03:55:04.801Z,13.10
2023-03-10T03:57:42.316Z,13.10
2023-03-10T04:00:27.221Z,13.10
2023-03-10T04:03:33.835Z,13.10
2023-03-10T04:06:19.018Z,13.10
2023-03-10T04:09:20.950Z,13.00
2023-03-10T04:11:58.628Z,13.00
2023-03-10T04:14:36.677Z,13.00
2023-03-10T04:17:34.321Z,13.00
2023-03-10T04:20:08.018Z,13.00
2023-03-10T04:22:43.466Z,13.00
2023-03-10T04:25:33.622Z,13.00
2023-03-10T04:28:19.596Z,13.00
2023-03-10T04:30:56.957Z,13.00
2023-03-10T04:33:34.889Z,12.90
2023-03-10T04:36:38.710Z,12.90
2023-03-10T04:39:25.437Z,12.90
2023-03-10T04:42:14.412Z,12.90
2023-03-10T04:45:05.478Z,12.90
2023-03-10T04:47:48.705Z,12.90
2023-03-10T04:50:30.886Z,12.90
2023-03-10T04:53:17.104Z,12.90
2023-03-10T04:55:53.270Z,12.90
2023-03-10T04:59:08.503Z,12.80
2023-03-10T05:01:45.225Z,12.80
2023-03-10T05:04:23.604Z,12.80
2023-03-10T05:06:59.583Z,12.80
2023-03-10T05:09:53.844Z,12.80
2023-03-10T05:12:41.938Z,12.80
2023-03-10T05:15:22.996Z,12.80
2023-03-10T05:18:21.227Z,12.80
2023-03-10T05:21:08.305Z,12.80
2023-03-10T05:23:52.921Z,12.80
2023-03-10T05:26:42.168Z,12.80
2023-03-10T05:29:13.001Z,12.80
2023-03-10T05:32:06.191Z,12.80
2023-03-10T05:34:52.295Z,12.90
2023-03-10T05:37:58.407Z,12.90
2023-03-10T05:40:28.909Z,12.90
2023-03-10T05:43:00.746Z,12.90
2023-03-10T05:45:33.329Z,12.90
2023-03-10T05:48:34.923Z,13.00
2023-03-10T05:51:27.637Z,13.00
2023-03-10T05:54:21.011Z,13.00
2023-03-10T05:57:07.187Z,13.00
2023-03-10T05:59:53.357Z,13.00
2023-03-10T06:02:29.641Z,13.10
2023-03-10T06:05:26.912Z,13.00
2023-03-10T06:08:09.807Z,13.10
2023-03-10T06:10:53.026Z,13.10
2023-03-10T06:13:27.900Z,13.10
2023-03-10T06:16:03.519Z,13.20
2023-03-10T06:18:44.538Z,13.20
2023-03-10T06:21:17.607Z,13.20
2023-03-10T06:24:11.008Z,13.20
2023-03-10T06:26:44.583Z,13.20
2023-03-10T06:29:30.206Z,13.30
2023-03-10T06:32:28.311Z,13.30
2023-03-10T06:35:23.817Z,13.30
2023-03-10T06:38:15.655Z,13.30
2023-03-10T06:41:21.089Z,13.30
2023-03-10T06:44:05.322Z,13.40
2023-03-10T06:46:51.420Z,13.30
2023-03-10T06:49:31.547Z,13.40
2023-03-10T06:52:35.836Z,13.30
2023-03-10T06:55:17.963Z,13.30
2023-03-10T06:58:12.113Z,13.40
2023-03-10T07:00:44.722Z,13.40
2023-03-10T07:03:32.314Z,13.40
2023-03-10T07:06:03.813Z,13.40
2023-03-10T07:08:46.963Z,13.40
2023-03-10T07:11:37.169Z,13.50
2023-03-10T07:14:28.652Z,13.50
2023-03-10T07:17:14.906Z,13.60
2023-03-10T07:19:45.439Z,13.70
2023-03-10T07:22:32.475Z,13.70
2023-03-10T07:25:22.632Z,13.70
2023-03-10T07:28:12.568Z,13.80
2023-03-10T07:31:14.774Z,13.90
2023-03-10T07:33:57.615Z,14.00
2023-03-10T07:36:40.570Z,14.10
2023-03-10T07:39:16.169Z,14.10
2023-03-10T07:41:56.731Z,14.10
2023-03-10T07:44:46.053Z,14.10
2023-03-10T07:47:40.422Z,14.10
2023-03-10T07:50:27.021Z,14.10
2023-03-10T07:53:00.775Z,14.10
2023-03-10T07:55:48.510Z,14.10
2023-03-10T07:58:30.452Z,14.10
2023-03-10T08:01:39.133Z,14.00
2023-03-10T08:04:35.155Z,14.00
2023-03-10T08:07:12.020Z,14.00
2023-03-10T08:09:55.996Z,14.00
2023-03-10T08:12:33.150Z,13.90
2023-03-10T08:15:13.801Z,13.90
2023-03-10T08:18:05.508Z,13.80
2023-03-10T08:20:48.117Z,13.80
2023-03-10T08:23:28.752Z,13.80
2023-03-10T08:26:06.549Z,13.70
2023-03-10T08:28:45.058Z,13.60
2023-03-10T08:31:25.554Z,13.50
2023-03-10T08:34:11.300Z,13.40
2023-03-10T08:37:01.805Z,13.20
2023-03-10T08:39:35.216Z,13.00
2023-03-10T08:42:22.865Z,12.90
2023-03-10T08:45:11.721Z,12.70
2023-03-10T08:48:10.665Z,12.60
2023-03-10T08:50:52.757Z,12.50
2023-03-10T08:53:40.542Z,12.40
2023-03-10T08:56:22.879Z,12.40
2023-03-10T08:58:59.318Z,12.30
2023-03-10T09:01:49.315Z,12.30
2023-03-10T09:04:35.719Z,12.20
2023-03-10T09:07:13.273Z,12.20
2023-03-10T09:09:56.050Z,12.20
2023-03-10T09:12:58.285Z,12.30
2023-03-10T09:15:43.173Z,12.30
2023-03-10T09:18:29.026Z,12.30
2023-03-10T09:21:16.974Z,12.40
2023-03-10T09:23:59.959Z,12.40
2023-03-10T09:26:34.873Z,12.40
2023-03-10T09:29:40.316Z,12.50
2023-03-10T09:32:26.209Z,12.60
2023-03-10T09:35:06.664Z,12.60
2023-03-10T09:37:38.534Z,12.60
2023-03-10T09:40:29.633Z,12.70
2023-03-10T09:43:06.142Z,12.70
2023-03-10T09:46:05.518Z,12.70
2023-03-10T09:49:01.807Z,12.70
2023-03-10T09:51:56.635Z,12.70
2023-03-10T09:54:51.770Z,12.70
2023-03-10T09:57:39.618Z,12.70
2023-03-10T10:00:26.421Z,12.70
2023-03-10T10:03:09.328Z,12.70
2023-03-10T10:05:54.088Z,12.70
2023-03-10T10:08:40.274Z,12.70
2023-03-10T10:11:29.300Z,12.70
2023-03-10T10:14:33.762Z,12.60
2023-03-10T10:18:08.350Z,12.60
2023-03-10T10:21:02.721Z,12.60
2023-03-10T10:23:59.962Z,12.50
2023-03-10T10:26:42.283Z,12.50
2023-03-10T10:29:51.490Z,12.50
2023-03-10T10:32:22.671Z,12.50
2023-03-10T10:35:24.265Z,12.50
2023-03-10T10:38:07.436Z,12.50
2023-03-10T10:40:59.569Z,12.60
2023-03-10T10:43:55.123Z,12.60
2023-03-10T10:46:33.213Z,12.60
2023-03-10T10:49:34.218Z,12.70
2023-03-10T10:52:25.135Z,12.70
2023-03-10T10:55:03.036Z,12.70
2023-03-10T10:58:01.503Z,12.80
2023-03-10T11:00:59.042Z,12.90
2023-03-10T11:03:37.502Z,12.90
2023-03-10T11:06:25.467Z,12.90
2023-03-10T11:09:09.530Z,12.90
2023-03-10T11:12:10.645Z,12.90
2023-03-10T11:15:22.033Z,13.00
2023-03-10T11:18:04.296Z,13.00
2023-03-10T11:21:13.900Z,13.00
2023-03-10T11:24:25.999Z,12.90
2023-03-10T11:27:21.105Z,12.90
2023-03-10T11:30:14.902Z,12.90
2023-03-10T11:33:06.490Z,13.00
2023-03-10T11:35:52.369Z,13.00
2023-03-10T11:38:43.763Z,13.10
2023-03-10T11:41:30.239Z,13.10
2023-03-10T11:44:30.656Z,13.10
2023-03-10T11:47:51.268Z,13.10
2023-03-10T11:50:40.154Z,13.10
2023-03-10T11:53:24.154Z,13.00
2023-03-10T11:56:18.813Z,13.00
2023-03-10T11:59:06.103Z,12.90
2023-03-10T12:01:51.240Z,12.80
2023-03-10T12:04:39.627Z,12.70
2023-03-10T12:07:21.734Z,12.70
2023-03-10T12:10:06.584Z,12.60
2023-03-10T12:12:57.574Z,12.60
2023-03-10T12:15:49.925Z,12.60
2023-03-10T12:18:32.192Z,12.50
2023-03-10T12:21:34.785Z,12.50
2023-03-10T12:24:47.832Z,12.50
2023-03-10T12:28:27.984Z,12.50
2023-03-10T12:31:10.985Z,12.40
2023-03-10T12:33:58.927Z,12.40
2023-03-10T12:36:40.661Z,12.30
2023-03-10T12:39:42.640Z,12.30
2023-03-10T12:43:05.594Z,12.20
2023-03-10T12:45:53.571Z,12.20
2023-03-10T12:48:29.400Z,12.10
2023-03-10T12:51:20.502Z,12.10
2023-03-10T12:54:16.930Z,12.10
2023-03-10T12:57:06.395Z,12.00
2023-03-10T12:59:56.399Z,12.00
2023-03-10T13:02:38.460Z,12.00
2023-03-10T13:05:31.941Z,12.00
2023-03-10T13:08:24.163Z,11.90
2023-03-10T13:11:10.307Z,11.90
2023-03-10T13:14:09.917Z,11.90
2023-03-10T13:17:01.116Z,11.90
2023-03-10T13:20:08.965Z,11.90
2023-03-10T13:22:53.636Z,11.90
2023-03-10T13:25:25.916Z,11.80
2023-03-10T13:28:09.900Z,11.80
2023-03-10T13:30:47.234Z,11.70
2023-03-10T13:33:35.390Z,11.70
2023-03-10T13:36:32.612Z,11.70
2023-03-10T13:39:06.501Z,11.60
2023-03-10T13:42:06.034Z,11.60
2023-03-10T13:44:59.482Z,11.50
2023-03-10T13:47:47.748Z,11.50
2023-03-10T13:50:53.656Z,11.50
2023-03-10T13:53:56.089Z,11.50
2023-03-10T13:56:46.811Z,11.50
2023-03-10T13:59:33.214Z,11.50
2023-03-10T14:02:24.120Z,11.60
2023-03-10T14:05:08.976Z,11.60
2023-03-10T14:08:34.368Z,11.60
2023-03-10T14:11:34.805Z,11.60
2023-03-10T14:14:32.536Z,11.60
2023-03-10T14:17:39.121Z,11.60
2023-03-10T14:20:33.568Z,11.60
2023-03-10T14:26:18.267Z,11.60
2023-03-10T14:28:51.629Z,11.60
2023-03-10T14:31:30.936Z,11.60
2023-03-10T14:34:13.305Z,11.50
2023-03-10T14:37:01.127Z,11.50
2023-03-10T14:39:58.912Z,11.60
2023-03-10T14:42:37.411Z,11.60
2023-03-10T14:45:37.333Z,11.60
2023-03-10T14:48:29.165Z,11.60
2023-03-10T14:51:25.658Z,11.60
2023-03-10T14:54:03.297Z,11.60
2023-03-10T14:56:35.542Z,11.60
2023-03-10T14:59:28.491Z,11.70
2023-03-10T15:02:29.616Z,11.70
2023-03-10T15:05:27.590Z,11.70
2023-03-10T15:08:01.245Z,11.70
2023-03-10T15:10:42.688Z,11.70
2023-03-10T15:13:21.327Z,11.60
2023-03-10T15:16:16.073Z,11.60
2023-03-10T15:19:08.559Z,11.60
2023-03-10T15:21:52.058Z,11.60
2023-03-10T15:24:45.523Z,11.60
2023-03-10T15:27:41.569Z,11.60
2023-03-10T15:30:20.781Z,11.60
2023-03-10T15:33:11.017Z,11.50
2023-03-10T15:36:10.602Z,11.50
2023-03-10T15:38:46.497Z,11.50
2023-03-10T15:41:43.183Z,11.40
2023-03-10T15:44:16.996Z,11.40
2023-03-10T15:47:02.161Z,11.30
2023-03-10T15:50:04.336Z,11.30
2023-03-10T15:52:35.990Z,11.30
2023-03-10T15:55:20.047Z,11.30
2023-03-10T15:57:57.567Z,11.30
2023-03-10T16:00:30.061Z,11.20
2023-03-10T16:03:00.779Z,11.20
2023-03-10T16:05:56.069Z,11.20
2023-03-10T16:08:42.648Z,11.20
2023-03-10T16:11:39.966Z,11.20
2023-03-10T16:14:37.307Z,11.10
2023-03-10T16:17:21.251Z,11.10
2023-03-10T16:20:08.966Z,11.10
2023-03-10T16:22:52.241Z,11.10
2023-03-10T16:25:22.989Z,11.10
2023-03-10T16:28:06.522Z,11.10
2023-03-10T16:30:53.398Z,11.10
2023-03-10T16:33:55.623Z,11.10
2023-03-10T16:36:37.190Z,11.10
2023-03-10T16:39:38.915Z,11.10
2023-03-10T16:42:14.785Z,11.10
2023-03-10T16:44:45.590Z,11.10
2023-03-10T16:47:31.831Z,11.20
2023-03-10T16:50:02.078Z,11.10
2023-03-10T16:52:44.650Z,11.10
2023-03-10T16:55:20.412Z,11.10
2023-03-10T16:58:06.192Z,11.10
2023-03-10T17:00:40.309Z,11.20
2023-03-10T17:03:11.826Z,11.20
2023-03-10T17:05:57.198Z,11.20
2023-03-10T17:08:43.198Z,11.10
2023-03-10T17:11:29.668Z,11.10
2023-03-10T17:14:21.873Z,11.10
2023-03-10T17:17:08.604Z,11.10
2023-03-10T17:19:41.367Z,11.00
2023-03-10T17:22:39.091Z,11.00
2023-03-10T17:25:17.845Z,11.00
2023-03-10T17:28:32.930Z,10.90
2023-03-10T17:31:23.844Z,10.90
2023-03-10T17:34:03.579Z,10.80
2023-03-10T17:36:54.300Z,10.80
2023-03-10T17:39:48.808Z,10.80
2023-03-10T17:42:34.772Z,10.80
2023-03-10T17:45:36.738Z,10.70
2023-03-10T17:48:21.388Z,10.70
2023-03-10T17:50:59.130Z,10.70
2023-03-10T17:53:39.966Z,10.70
2023-03-10T17:56:18.514Z,10.80
2023-03-10T17:58:56.975Z,10.70
2023-03-10T18:02:14.122Z,10.70
2023-03-10T18:05:01.258Z,10.70
2023-03-10T18:07:45.700Z,10.60
2023-03-10T18:10:28.482Z,10.60
2023-03-10T18:13:15.280Z,10.60
2023-03-10T18:16:01.863Z,10.60
2023-03-10T18:18:36.695Z,10.50
2023-03-10T18:21:21.549Z,10.50
2023-03-10T18:24:14.911Z,10.50
2023-03-10T18:26:57.133Z,10.50
2023-03-10T18:29:39.960Z,10.40
2023-03-10T18:32:28.389Z,10.40
2023-03-10T18:35:12.586Z,10.40
2023-03-10T18:38:08.431Z,10.40
2023-03-10T18:41:07.293Z,10.40
2023-03-10T18:43:48.754Z,10.40
2023-03-10T18:46:29.098Z,10.30
2023-03-10T18:49:23.048Z,10.30
2023-03-10T18:52:16.303Z,10.30
2023-03-10T18:55:07.861Z,10.30
2023-03-10T18:57:55.887Z,10.20
2023-03-10T19:00:28.346Z,10.10
2023-03-10T19:03:26.963Z,9.90
2023-03-10T19:06:18.774Z,9.60
2023-03-10T19:08:55.037Z,9.30
2023-03-10T19:11:46.560Z,9.00
2023-03-10T19:14:16.866Z,8.80
2023-03-10T19:16:55.476Z,8.60
2023-03-10T19:19:59.839Z,8.40
2023-03-10T19:23:10.175Z,8.20
2023-03-10T19:25:47.482Z,8.00
2023-03-10T19:28:47.706Z,7.90
2023-03-10T19:31:27.220Z,7.70
2023-03-10T19:33:58.100Z,7.60
2023-03-10T19:36:29.963Z,7.50
2023-03-10T19:39:21.824Z,7.50
2023-03-10T19:42:02.276Z,7.40
2023-03-10T19:44:54.245Z,7.40
2023-03-10T19:47:50.206Z,7.30
2023-03-10T19:50:39.717Z,7.30
2023-03-10T19:53:12.207Z,7.30
2023-03-10T19:56:00.862Z,7.20
2023-03-10T19:58:57.112Z,7.30
2023-03-10T20:01:34.459Z,7.30
2023-03-10T20:04:07.104Z,7.20
2023-03-10T20:06:39.184Z,7.20
2023-03-10T20:09:14.190Z,7.20
2023-03-10T20:12:09.936Z,7.20
2023-03-10T20:15:13.243Z,7.20
2023-03-10T20:17:53.833Z,7.10
2023-03-10T20:20:29.746Z,7.10
2023-03-10T20:23:16.461Z,7.10
2023-03-10T20:26:30.993Z,7.10
2023-03-10T20:29:04.323Z,7.10
2023-03-10T20:31:42.137Z,7.10
2023-03-10T20:34:22.379Z,7.10
2023-03-10T20:37:14.770Z,7.10
2023-03-10T20:39:56.000Z,7.10
2023-03-10T20:42:26.960Z,7.10
2023-03-10T20:45:00.523Z,7.10
2023-03-10T20:47:59.022Z,7.10
2023-03-10T20:50:50.181Z,7.10
2023-03-10T20:53:27.145Z,7.10
2023-03-10T20:56:14.856Z,7.10
2023-03-10T20:59:03.649Z,7.10
2023-03-10T21:02:00.476Z,7.00
2023-03-10T21:05:05.234Z,7.00
2023-03-10T21:07:46.110Z,7.00
2023-03-10T21:10:35.692Z,7.00
2023-03-10T21:13:16.892Z,7.00
2023-03-10T21:15:55.906Z,7.00
2023-03-10T21:18:26.318Z,7.00
2023-03-10T21:21:09.908Z,7.00
2023-03-10T21:24:18.539Z,7.00
2023-03-10T21:27:27.791Z,6.90
2023-03-10T21:30:17.511Z,7.00
2023-03-10T21:33:06.295Z,6.90
2023-03-10T21:35:38.928Z,6.90
2023-03-10T21:38:36.877Z,6.90
2023-03-10T21:41:09.299Z,6.80
2023-03-10T21:43:41.423Z,6.80
2023-03-10T21:46:38.477Z,6.80
2023-03-10T21:49:12.249Z,6.80
2023-03-10T21:51:58.248Z,6.80
2023-03-10T21:54:51.986Z,6.70
2023-03-10T21:57:28.466Z,6.70
2023-03-10T22:00:23.260Z,6.80
2023-03-10T22:03:11.246Z,6.70
2023-03-10T22:06:02.991Z,6.70
2023-03-10T22:09:19.997Z,6.70
2023-03-10T22:11:52.401Z,6.70
2023-03-10T22:14:28.215Z,6.70
2023-03-10T22:17:00.853Z,6.70
2023-03-10T22:19:39.230Z,6.70
2023-03-10T22:22:36.615Z,6.70
2023-03-10T22:25:22.915Z,6.70
2023-03-10T22:28:17.488Z,6.70
2023-03-10T22:30:51.842Z,6.70
2023-03-10T22:33:42.841Z,6.70
2023-03-10T22:36:30.673Z,6.70
2023-03-10T22:39:38.341Z,6.70
2023-03-10T22:42:10.928Z,6.70
2023-03-10T22:45:08.593Z,6.60
2023-03-10T22:48:08.123Z,6.70
2023-03-10T22:50:41.225Z,6.60
2023-03-10T22:53:24.205Z,6.60
2023-03-10T22:56:00.866Z,6.60
2023-03-10T22:58:31.420Z,6.60
2023-03-10T23:01:11.920Z,6.60
2023-03-10T23:04:11.536Z,6.60
2023-03-10T23:07:00.146Z,6.60
2023-03-10T23:09:38.836Z,6.60
2023-03-10T23:12:29.075Z,6.60
2023-03-10T23:15:24.216Z,6.60
2023-03-10T23:18:20.791Z,6.60
2023-03-10T23:21:19.818Z,6.60
2023-03-10T23:24:04.330Z,6.50
2023-03-10T23:26:42.033Z,6.50
2023-03-10T23:29:25.206Z,6.50
2023-03-10T23:32:03.537Z,6.50
2023-03-10T23:34:53.902Z,6.50
2023-03-10T23:37:29.138Z,6.50
2023-03-10T23:40:11.935Z,6.50
2023-03-10T23:42:54.273Z,6.40
2023-03-10T23:45:38.484Z,6.40
2023-03-10T23:48:18.584Z,6.40
2023-03-10T23:50:52.512Z,6.30
2023-03-10T23:53:25.977Z,6.20
2023-03-10T23:56:07.213Z,6.20
2023-03-10T23:58:53.780Z,6.10
